Time;durP1;ratioP1;P1;durP2;ratioP2;P2;SDS_P1;SDS_P2;PMS_P1;PMS_P2;Temp;Humidity;BMP_temperature;BMP_pressure;BME280_temperature;BME280_humidity;BME280_pressure;Samples;Min_cycle;Max_cycle;Signal;HPM_P1;HPM_P2
2023/07/30 00:02:03;;;;;;;6.63;3.60;;;;;;;16.86;100.00;96911.91;5049805;28;20417;-74
2023/07/30 00:04:31;;;;;;;9.40;3.38;;;;;;;16.76;100.00;96923.66;5050131;28;20416;-74
2023/07/30 00:06:57;;;;;;;6.38;3.20;;;;;;;16.70;100.00;96926.72;5049738;28;20417;-74
2023/07/30 00:09:23;;;;;;;9.85;3.15;;;;;;;16.61;100.00;96916.72;5049928;28;20836;-73
2023/07/30 00:11:49;;;;;;;7.77;3.47;;;;;;;16.60;100.00;96914.34;5049890;28;20496;-73
2023/07/30 00:14:16;;;;;;;13.70;4.70;;;;;;;16.57;100.00;96914.94;5049741;28;20408;-73
2023/07/30 00:16:42;;;;;;;8.25;4.07;;;;;;;16.55;100.00;96917.91;5049639;28;20452;-73
2023/07/30 00:19:08;;;;;;;10.65;4.55;;;;;;;16.57;100.00;96918.41;5049777;28;20413;-74
2023/07/30 00:21:35;;;;;;;10.43;4.07;;;;;;;16.58;100.00;96916.53;5049522;28;20433;-74
2023/07/30 00:24:02;;;;;;;9.45;3.90;;;;;;;16.63;100.00;96927.13;5049686;28;20405;-74
2023/07/30 00:26:29;;;;;;;10.30;4.00;;;;;;;16.61;100.00;96926.66;5049396;28;20417;-74
2023/07/30 00:28:56;;;;;;;9.27;4.20;;;;;;;16.61;100.00;96927.41;5049771;28;20405;-74
2023/07/30 00:31:22;;;;;;;8.00;3.77;;;;;;;16.63;100.00;96930.59;5049435;28;20495;-74
2023/07/30 00:33:48;;;;;;;11.18;5.13;;;;;;;16.68;100.00;96943.06;5049664;28;20775;-73
2023/07/30 00:36:14;;;;;;;11.88;5.20;;;;;;;16.71;100.00;96949.69;5049365;28;20416;-73
2023/07/30 00:38:42;;;;;;;10.83;5.30;;;;;;;16.71;100.00;96945.13;5049745;28;20409;-73
2023/07/30 00:41:08;;;;;;;11.90;4.80;;;;;;;16.68;100.00;96944.94;5049456;28;20755;-73
2023/07/30 00:43:34;;;;;;;10.17;4.60;;;;;;;16.68;100.00;96945.75;5049651;28;20526;-73
2023/07/30 00:46:00;;;;;;;19.63;6.50;;;;;;;16.70;100.00;96945.41;5051701;28;20417;-73
2023/07/30 00:48:27;;;;;;;29.27;9.60;;;;;;;16.65;100.00;96949.00;5053227;28;20492;-73
2023/07/30 00:50:53;;;;;;;18.63;7.80;;;;;;;16.63;100.00;96941.28;5053052;28;20417;-73
2023/07/30 00:53:23;;;;;;;20.42;8.65;;;;;;;16.69;100.00;96944.63;5053217;28;20409;-73
2023/07/30 00:55:51;;;;;;;16.80;7.85;;;;;;;16.71;100.00;96953.16;5052917;28;20424;-73
2023/07/30 00:58:18;;;;;;;20.65;9.80;;;;;;;16.76;100.00;96945.03;5044566;28;20412;-73
2023/07/30 01:00:45;;;;;;;17.70;9.02;;;;;;;16.75;100.00;96948.00;5052931;28;20790;-73
2023/07/30 01:03:11;;;;;;;23.27;10.90;;;;;;;16.83;100.00;96956.09;5052813;28;20402;-73
2023/07/30 01:05:37;;;;;;;41.45;13.43;;;;;;;16.80;100.00;96956.69;5052747;28;20436;-73
2023/07/30 01:08:04;;;;;;;21.40;10.05;;;;;;;16.84;100.00;96964.91;5052737;28;20405;-73
2023/07/30 01:10:32;;;;;;;19.15;9.05;;;;;;;16.87;100.00;96964.28;5052867;28;20416;-73
2023/07/30 01:13:01;;;;;;;17.90;8.70;;;;;;;16.89;100.00;96957.56;5052735;28;20752;-73
2023/07/30 01:15:28;;;;;;;20.02;9.10;;;;;;;16.92;100.00;96946.25;5052676;28;20412;-73
2023/07/30 01:17:55;;;;;;;17.75;8.55;;;;;;;16.96;100.00;96952.59;5052921;28;20408;-73
2023/07/30 01:20:21;;;;;;;18.38;8.27;;;;;;;16.97;100.00;96956.06;5052465;28;20484;-73
2023/07/30 01:22:49;;;;;;;17.35;7.97;;;;;;;16.94;100.00;96967.34;5052376;28;20504;-73
2023/07/30 01:25:15;;;;;;;16.33;7.70;;;;;;;16.91;100.00;96966.09;5052502;28;20401;-73
2023/07/30 01:27:51;;;;;;;12.90;7.22;;;;;;;16.92;100.00;96964.97;5052256;28;20424;-73
2023/07/30 01:30:22;;;;;;;12.68;6.57;;;;;;;16.94;100.00;96959.31;5052403;28;20455;-73
2023/07/30 01:32:52;;;;;;;13.90;7.13;;;;;;;16.96;100.00;96967.84;5052197;28;20417;-73
2023/07/30 01:35:24;;;;;;;18.90;9.27;;;;;;;16.95;100.00;96964.38;5052260;28;20480;-72
2023/07/30 01:37:52;;;;;;;20.08;9.10;;;;;;;16.95;100.00;96972.41;5052272;28;20400;-73
2023/07/30 01:40:19;;;;;;;24.42;10.55;;;;;;;16.95;100.00;96969.72;5052511;28;20394;-73
2023/07/30 01:42:45;;;;;;;22.10;9.90;;;;;;;16.91;100.00;96971.44;5052200;28;20879;-73
2023/07/30 01:45:11;;;;;;;20.65;9.25;;;;;;;16.88;100.00;96966.69;5052279;28;20440;-74
2023/07/30 01:47:38;;;;;;;23.23;9.90;;;;;;;16.91;100.00;96976.00;5052054;28;20421;-74
2023/07/30 01:50:05;;;;;;;23.27;9.63;;;;;;;16.87;100.00;96978.47;5052453;28;20430;-73
2023/07/30 01:52:31;;;;;;;23.85;9.63;;;;;;;16.82;100.00;96977.78;5052085;28;20459;-73
2023/07/30 01:55:00;;;;;;;17.75;8.13;;;;;;;16.82;100.00;96975.91;5052223;28;20401;-74
2023/07/30 01:57:27;;;;;;;20.05;8.50;;;;;;;16.81;100.00;96978.88;5051164;28;20401;-74
2023/07/30 01:59:53;;;;;;;13.55;7.38;;;;;;;16.81;100.00;96976.19;5051817;28;20804;-73
2023/07/30 02:02:19;;;;;;;19.60;8.50;;;;;;;16.81;100.00;96976.19;5051701;28;20450;-73
2023/07/30 02:04:45;;;;;;;16.13;7.70;;;;;;;16.81;100.00;96985.00;5051783;28;20475;-73
2023/07/30 02:07:11;;;;;;;16.83;7.80;;;;;;;16.81;100.00;96978.88;5051402;28;20428;-73
2023/07/30 02:09:37;;;;;;;14.27;6.40;;;;;;;16.84;100.00;96979.03;5051787;28;20402;-73
2023/07/30 02:12:06;;;;;;;11.85;6.15;;;;;;;16.87;100.00;96977.66;5051699;28;20402;-73
2023/07/30 02:14:32;;;;;;;10.50;5.45;;;;;;;16.92;100.00;96977.53;5051979;28;20716;-73
2023/07/30 02:16:58;;;;;;;13.18;6.32;;;;;;;16.91;100.00;96967.97;5051316;28;20409;-73
2023/07/30 02:19:25;;;;;;;14.73;6.53;;;;;;;16.91;100.00;96967.97;5050366;28;20413;-73
2023/07/30 02:21:51;;;;;;;11.38;5.65;;;;;;;16.90;100.00;96969.06;5049976;28;20810;-73
2023/07/30 02:24:17;;;;;;;15.55;6.95;;;;;;;16.88;100.00;96971.22;5051072;28;20405;-73
2023/07/30 02:26:43;;;;;;;12.93;6.83;;;;;;;16.85;100.00;96974.50;5051122;28;21021;-73
2023/07/30 02:29:11;;;;;;;13.35;5.80;;;;;;;16.84;100.00;96972.94;5051341;28;20405;-73
2023/07/30 02:31:37;;;;;;;11.77;5.67;;;;;;;16.80;100.00;96979.97;5051286;28;20413;-73
2023/07/30 02:34:03;;;;;;;11.13;5.72;;;;;;;16.78;100.00;96979.47;5051283;28;20943;-73
2023/07/30 02:36:29;;;;;;;15.38;6.25;;;;;;;16.76;100.00;96984.34;5051163;28;20389;-73
2023/07/30 02:38:55;;;;;;;10.27;5.57;;;;;;;16.72;100.00;96981.47;5051074;28;20410;-73
2023/07/30 02:41:21;;;;;;;15.20;6.93;;;;;;;16.67;100.00;96986.91;5050969;28;20409;-73
2023/07/30 02:43:48;;;;;;;18.13;6.38;;;;;;;16.69;100.00;96986.63;5051126;28;20467;-73
2023/07/30 02:46:15;;;;;;;15.53;6.30;;;;;;;16.67;100.00;96986.13;5050722;28;20423;-73
2023/07/30 02:48:41;;;;;;;10.63;5.63;;;;;;;16.63;100.00;96989.38;5050939;28;20416;-73
2023/07/30 02:51:07;;;;;;;15.70;6.97;;;;;;;16.63;100.00;96983.25;5050820;28;20437;-73
2023/07/30 02:53:33;;;;;;;17.23;7.07;;;;;;;16.61;100.00;96983.53;5050944;28;20791;-72
2023/07/30 02:56:00;;;;;;;17.33;7.78;;;;;;;16.62;100.00;96976.31;5050715;28;20493;-72
2023/07/30 02:58:26;;;;;;;15.07;7.87;;;;;;;16.61;100.00;96988.13;5050633;28;20562;-73
2023/07/30 03:00:52;;;;;;;14.73;7.78;;;;;;;16.61;100.00;96985.44;5050714;28;20409;-73
2023/07/30 03:03:20;;;;;;;18.25;8.52;;;;;;;16.60;100.00;96983.84;5050567;28;20409;-73
2023/07/30 03:05:46;;;;;;;14.57;7.60;;;;;;;16.58;100.00;96983.34;5032500;28;20405;-73
2023/07/30 03:08:13;;;;;;;16.50;7.77;;;;;;;16.57;100.00;96987.09;5049697;28;20459;-73
2023/07/30 03:10:39;;;;;;;12.80;7.20;;;;;;;16.57;100.00;96995.91;5050281;28;20918;-73
2023/07/30 03:13:05;;;;;;;20.27;8.35;;;;;;;16.57;100.00;96992.44;5050633;28;20433;-73
2023/07/30 03:15:31;;;;;;;15.05;7.35;;;;;;;16.56;100.00;96993.53;5050669;28;20477;-73
2023/07/30 03:17:57;;;;;;;14.10;7.30;;;;;;;16.57;100.00;96995.09;5050373;28;20404;-73
2023/07/30 03:20:25;;;;;;;13.15;7.20;;;;;;;16.56;100.00;96994.31;5050404;28;20421;-73
2023/07/30 03:22:51;;;;;;;13.80;7.65;;;;;;;16.57;100.00;96995.09;5050268;28;20420;-73
2023/07/30 03:25:17;;;;;;;16.45;8.55;;;;;;;16.64;100.00;96990.97;5050298;28;20404;-73
2023/07/30 03:27:44;;;;;;;17.95;8.90;;;;;;;16.63;100.00;96988.59;5050122;28;20417;-73
2023/07/30 03:30:11;;;;;;;17.38;8.40;;;;;;;16.62;100.00;96987.81;5050354;28;20437;-73
2023/07/30 03:32:37;;;;;;;16.20;7.57;;;;;;;16.63;100.00;96988.59;5050194;28;20397;-73
2023/07/30 03:35:04;;;;;;;13.35;6.57;;;;;;;16.62;100.00;96995.03;5050104;28;20432;-73
2023/07/30 03:37:31;;;;;;;11.35;6.63;;;;;;;16.63;100.00;96999.28;5050121;28;20408;-73
2023/07/30 03:39:58;;;;;;;13.87;6.60;;;;;;;16.60;100.00;96995.34;5050186;28;20399;-73
2023/07/30 03:42:24;;;;;;;15.38;7.57;;;;;;;16.61;100.00;96996.91;5050156;28;20412;-73
2023/07/30 03:44:50;;;;;;;15.80;8.40;;;;;;;16.62;100.00;96998.50;5050167;28;20408;-73
2023/07/30 03:47:16;;;;;;;18.20;8.30;;;;;;;16.61;100.00;96994.22;5049725;28;20503;-73
2023/07/30 03:49:42;;;;;;;11.57;6.43;;;;;;;16.61;100.00;97002.25;5050405;28;20881;-73
2023/07/30 03:52:08;;;;;;;15.27;7.28;;;;;;;16.62;100.00;97014.53;5050165;28;20767;-73
2023/07/30 03:54:36;;;;;;;18.07;8.47;;;;;;;16.65;100.00;97015.81;5050412;28;20401;-74
2023/07/30 03:57:02;;;;;;;15.32;7.93;;;;;;;16.62;100.00;97011.06;5050094;28;20412;-75
2023/07/30 03:59:29;;;;;;;26.58;9.23;;;;;;;16.57;100.00;97009.25;5050116;28;20405;-75
2023/07/30 04:01:55;;;;;;;25.23;10.52;;;;;;;16.55;100.00;97008.75;5050062;28;20463;-74
2023/07/30 04:04:21;;;;;;;16.30;8.70;;;;;;;16.57;100.00;97017.28;5050187;28;20917;-74
2023/07/30 04:06:47;;;;;;;18.90;9.45;;;;;;;16.55;100.00;97022.13;5050149;28;20428;-74
2023/07/30 04:09:13;;;;;;;14.82;7.65;;;;;;;16.59;100.00;97011.66;5050448;28;20464;-74
2023/07/30 04:11:41;;;;;;;17.25;8.65;;;;;;;16.60;100.00;97006.03;5050515;28;20859;-74
2023/07/30 04:14:08;;;;;;;16.30;8.30;;;;;;;16.61;100.00;97012.94;5050113;28;20416;-74
2023/07/30 04:16:35;;;;;;;14.05;7.50;;;;;;;16.60;100.00;97015.91;5049805;28;20405;-74
2023/07/30 04:19:01;;;;;;;17.90;7.75;;;;;;;16.60;100.00;97007.88;5050132;28;20398;-74
2023/07/30 04:21:27;;;;;;;17.10;8.13;;;;;;;16.59;100.00;97012.44;5053273;28;20496;-74
2023/07/30 04:23:53;;;;;;;13.90;7.60;;;;;;;16.57;100.00;97025.28;5054064;28;20399;-74
2023/07/30 04:26:20;;;;;;;13.50;7.75;;;;;;;16.59;100.00;97035.69;5053636;28;20923;-74
2023/07/30 04:28:47;;;;;;;18.88;7.97;;;;;;;16.56;100.00;97036.28;5053903;28;20405;-74
2023/07/30 04:31:13;;;;;;;19.45;8.93;;;;;;;16.53;100.00;97051.03;5053586;28;20467;-73
2023/07/30 04:33:39;;;;;;;21.67;9.65;;;;;;;16.44;100.00;97044.81;5053798;28;20729;-73
2023/07/30 04:36:07;;;;;;;18.90;9.05;;;;;;;16.43;100.00;97047.75;5053265;28;20433;-74
2023/07/30 04:38:33;;;;;;;20.43;9.17;;;;;;;16.44;100.00;97054.69;5053639;28;20984;-74
2023/07/30 04:41:00;;;;;;;23.63;9.27;;;;;;;16.43;100.00;97048.56;5053373;28;20458;-74
2023/07/30 04:43:26;;;;;;;17.48;8.52;;;;;;;16.45;100.00;97041.03;5053322;28;20401;-73
2023/07/30 04:45:53;;;;;;;17.05;8.30;;;;;;;16.47;100.00;97038.84;5035530;28;20409;-73
2023/07/30 04:48:19;;;;;;;14.93;7.10;;;;;;;16.52;100.00;97041.44;5053237;28;20759;-73
2023/07/30 04:50:46;;;;;;;15.83;8.20;;;;;;;16.58;100.00;97045.59;5053362;28;20437;-73
2023/07/30 04:53:12;;;;;;;14.43;7.57;;;;;;;16.61;100.00;97052.25;5053204;28;20420;-73
2023/07/30 04:55:38;;;;;;;12.32;6.88;;;;;;;16.64;100.00;97048.97;5053395;28;20736;-73
2023/07/30 04:58:04;;;;;;;14.60;6.97;;;;;;;16.64;100.00;97048.97;5053064;28;20463;-73
2023/07/30 05:00:31;;;;;;;12.63;6.70;;;;;;;16.64;100.00;97044.41;5053131;28;20455;-72
2023/07/30 05:02:58;;;;;;;13.38;7.13;;;;;;;16.67;100.00;97051.06;5053332;28;20408;-72
2023/07/30 05:05:24;;;;;;;11.00;6.30;;;;;;;16.70;100.00;97055.78;5053121;28;20467;-73
2023/07/30 05:07:50;;;;;;;12.57;6.80;;;;;;;16.73;100.00;97054.41;5052945;28;20429;-72
2023/07/30 05:10:17;;;;;;;13.35;6.90;;;;;;;16.75;100.00;97074.44;5053037;28;20492;-73
2023/07/30 05:12:43;;;;;;;12.55;6.70;;;;;;;16.75;100.00;97077.09;5052628;28;20423;-73
2023/07/30 05:15:09;;;;;;;12.73;6.20;;;;;;;16.74;100.00;97080.84;5052901;28;20412;-73
2023/07/30 05:17:35;;;;;;;15.07;6.95;;;;;;;16.73;100.00;97078.47;5052792;28;20428;-73
2023/07/30 05:20:04;;;;;;;11.97;6.57;;;;;;;16.71;100.00;97083.31;5052916;28;20435;-73
2023/07/30 05:22:30;;;;;;;18.40;7.30;;;;;;;16.67;100.00;97079.66;5052734;28;20404;-73
2023/07/30 05:24:56;;;;;;;14.20;6.93;;;;;;;16.67;100.00;97088.47;5052849;28;20401;-73
2023/07/30 05:27:22;;;;;;;19.88;8.50;;;;;;;16.68;100.00;97070.56;5052739;28;20420;-73
2023/07/30 05:29:49;;;;;;;10.00;6.13;;;;;;;16.73;100.00;97076.59;5052712;28;20440;-73
2023/07/30 05:32:15;;;;;;;12.48;6.20;;;;;;;16.77;100.00;97074.09;5051288;28;20398;-73
2023/07/30 05:34:42;;;;;;;10.63;5.80;;;;;;;16.83;100.00;97071.06;5052631;28;20401;-73
2023/07/30 05:37:09;;;;;;;8.07;4.90;;;;;;;16.90;100.00;97079.47;5052279;28;20397;-73
2023/07/30 05:39:35;;;;;;;8.43;4.72;;;;;;;16.95;100.00;97075.88;5052562;28;20401;-73
2023/07/30 05:42:02;;;;;;;6.65;4.45;;;;;;;16.98;100.00;97081.44;5052420;28;20401;-73
2023/07/30 05:44:28;;;;;;;7.30;4.40;;;;;;;16.98;100.00;97076.09;5052330;28;20424;-75
2023/07/30 05:46:54;;;;;;;9.95;5.70;;;;;;;16.94;100.00;97082.31;5034235;28;20475;-74
2023/07/30 05:49:20;;;;;;;8.65;5.38;;;;;;;16.94;100.00;97083.09;5052422;28;20412;-74
2023/07/30 05:51:46;;;;;;;13.80;6.50;;;;;;;16.95;100.00;97086.56;5052285;28;21055;-74
2023/07/30 05:54:14;;;;;;;11.80;6.68;;;;;;;16.94;100.00;97082.31;5052181;28;20408;-74
2023/07/30 05:56:40;;;;;;;11.10;5.97;;;;;;;16.95;100.00;97078.56;5052052;28;20427;-74
2023/07/30 05:59:06;;;;;;;9.43;5.00;;;;;;;16.97;100.00;97079.06;5034199;28;20424;-74
2023/07/30 06:01:33;;;;;;;8.55;4.72;;;;;;;17.01;100.00;97075.47;5052041;28;20425;-74
2023/07/30 06:03:59;;;;;;;8.13;4.43;;;;;;;17.07;100.00;97070.00;5052116;28;20409;-74
2023/07/30 06:06:28;;;;;;;7.20;4.60;;;;;;;17.15;100.00;97069.31;5051985;28;20775;-74
2023/07/30 06:08:55;;;;;;;7.20;4.90;;;;;;;17.20;100.00;97072.69;5052064;28;20401;-74
2023/07/30 06:11:22;;;;;;;11.23;5.90;;;;;;;17.24;100.00;97075.53;5051795;28;20400;-74
2023/07/30 06:13:49;;;;;;;17.50;7.70;;;;;;;17.27;100.00;97077.63;5051982;28;20807;-74
2023/07/30 06:16:17;;;;;;;11.43;6.60;;;;;;;17.29;100.00;97081.53;5051638;28;21005;-74
2023/07/30 06:18:44;;;;;;;9.57;5.60;;;;;;;17.36;100.00;97084.63;5051877;28;20405;-74
2023/07/30 06:21:10;;;;;;;12.05;6.93;;;;;;;17.43;100.00;97092.25;5051602;28;20405;-73
2023/07/30 06:23:36;;;;;;;14.18;7.28;;;;;;;17.36;100.00;97087.31;5033780;28;20414;-73
2023/07/30 06:26:02;;;;;;;14.23;7.75;;;;;;;17.28;100.00;97074.63;5051393;28;20467;-73
2023/07/30 06:28:30;;;;;;;16.20;7.72;;;;;;;17.21;100.00;97068.91;5051520;28;20397;-73
2023/07/30 06:30:59;;;;;;;16.57;7.77;;;;;;;17.14;100.00;97065.84;5051449;28;20987;-73
2023/07/30 06:33:25;;;;;;;13.13;6.60;;;;;;;17.16;100.00;97070.88;5033610;28;20479;-73
2023/07/30 06:35:51;;;;;;;9.93;5.72;;;;;;;17.24;100.00;97067.50;5051490;28;20402;-73
2023/07/30 06:38:17;;;;;;;13.85;6.35;;;;;;;17.33;100.00;97081.75;5051233;28;20409;-73
2023/07/30 06:40:43;;;;;;;15.40;7.20;;;;;;;17.53;100.00;97089.31;5051435;28;20402;-73
2023/07/30 06:43:10;;;;;;;14.65;7.32;;;;;;;17.66;100.00;97093.09;5051027;28;20437;-73
2023/07/30 06:45:37;;;;;;;12.68;6.45;;;;;;;17.71;100.00;97096.44;5051267;28;20409;-73
2023/07/30 06:48:03;;;;;;;14.70;7.15;;;;;;;17.56;100.00;97098.63;5050973;28;20417;-73
2023/07/30 06:50:30;;;;;;;8.63;4.97;;;;;;;17.63;100.00;97101.72;5051322;28;20511;-73
2023/07/30 06:52:56;;;;;;;19.25;7.00;;;;;;;17.64;100.00;97106.78;5050953;28;20763;-73
2023/07/30 06:55:22;;;;;;;14.93;5.97;;;;;;;17.65;100.00;97108.34;5050991;28;20416;-73
2023/07/30 06:57:48;;;;;;;15.77;6.20;;;;;;;17.56;100.00;97109.34;5050756;28;20424;-73
2023/07/30 07:00:21;;;;;;;13.43;4.95;;;;;;;17.55;100.00;97100.53;5050982;28;20772;-73
2023/07/30 07:02:48;;;;;;;8.93;4.70;;;;;;;17.60;100.00;97110.31;5050882;28;20867;-73
2023/07/30 07:05:15;;;;;;;8.05;4.72;;;;;;;17.62;100.00;97111.63;5051293;28;20405;-73
2023/07/30 07:07:41;;;;;;;8.73;4.40;;;;;;;17.62;100.00;97113.50;5050658;28;20474;-73
2023/07/30 07:10:08;;;;;;;6.80;3.83;;;;;;;17.64;100.00;97120.16;5050738;28;20397;-72
2023/07/30 07:12:34;;;;;;;5.77;3.70;;;;;;;17.69;100.00;97121.91;5050620;28;20953;-73
2023/07/30 07:15:01;;;;;;;8.38;4.10;;;;;;;17.73;100.00;97136.28;5050761;28;20463;-73
2023/07/30 07:17:28;;;;;;;5.53;3.57;;;;;;;17.76;100.00;97128.44;5050692;28;20405;-73
2023/07/30 07:19:56;;;;;;;6.70;3.78;;;;;;;17.77;100.00;97126.53;5050740;28;20424;-72
2023/07/30 07:22:22;;;;;;;5.53;3.75;;;;;;;17.81;100.00;97135.56;5050127;28;20416;-72
2023/07/30 07:24:48;;;;;;;7.07;4.05;;;;;;;17.86;100.00;97142.69;5050766;28;20441;-72
2023/07/30 07:27:14;;;;;;;9.85;4.38;;;;;;;17.81;100.00;97140.13;5050133;28;20775;-72
2023/07/30 07:29:41;;;;;;;10.83;4.37;;;;;;;17.82;100.00;97153.19;5050612;28;20836;-72
2023/07/30 07:32:07;;;;;;;7.60;4.30;;;;;;;17.79;100.00;97169.88;5050339;28;20926;-73
2023/07/30 07:34:34;;;;;;;17.85;4.97;;;;;;;17.74;100.00;97183.38;5050502;28;20412;-74
2023/07/30 07:37:02;;;;;;;10.10;4.50;;;;;;;17.54;100.00;97179.22;5050445;28;20471;-74
2023/07/30 07:39:28;;;;;;;10.95;4.50;;;;;;;17.44;100.00;97162.59;5050397;28;20397;-74
2023/07/30 07:41:55;;;;;;;5.88;3.60;;;;;;;17.41;100.00;97147.94;5050290;28;20408;-74
2023/07/30 07:44:22;;;;;;;6.28;3.67;;;;;;;17.48;100.00;97150.19;5050252;28;20405;-73
2023/07/30 07:46:48;;;;;;;8.13;4.20;;;;;;;17.51;100.00;97149.59;5050092;28;20417;-73
2023/07/30 07:49:14;;;;;;;11.70;4.90;;;;;;;17.52;100.00;97162.66;5050199;28;20406;-73
2023/07/30 07:51:40;;;;;;;8.02;4.63;;;;;;;17.52;100.00;97169.91;5050253;28;20482;-73
2023/07/30 07:54:08;;;;;;;6.82;4.30;;;;;;;17.55;100.00;97172.78;5032772;28;20420;-73
2023/07/30 07:56:34;;;;;;;9.30;4.55;;;;;;;17.55;100.00;97167.44;5056327;28;20409;-73
2023/07/30 07:59:00;;;;;;;7.55;4.10;;;;;;;17.62;100.00;97167.84;5056848;28;20942;-73
2023/07/30 08:01:26;;;;;;;6.07;4.13;;;;;;;17.71;100.00;97162.56;5056769;28;20401;-73
2023/07/30 08:03:53;;;;;;;7.00;4.00;;;;;;;17.81;100.00;97150.84;5056934;28;20480;-73
2023/07/30 08:06:19;;;;;;;4.85;3.30;;;;;;;17.97;100.00;97152.84;5056549;28;20409;-73
2023/07/30 08:08:45;;;;;;;6.30;3.55;;;;;;;18.09;100.00;97171.06;5056916;28;20946;-73
2023/07/30 08:11:12;;;;;;;5.85;3.75;;;;;;;18.25;100.00;97164.25;5056479;28;20401;-73
2023/07/30 08:13:39;;;;;;;6.43;3.10;;;;;;;18.27;100.00;97162.03;5056784;28;20898;-73
2023/07/30 08:16:05;;;;;;;5.30;3.20;;;;;;;18.24;100.00;97172.56;5056508;28;20405;-73
2023/07/30 08:18:31;;;;;;;7.18;3.20;;;;;;;18.22;100.00;97167.53;5056635;28;20401;-73
2023/07/30 08:20:57;;;;;;;4.85;2.70;;;;;;;18.30;100.00;97166.78;5056689;28;20492;-72
2023/07/30 08:23:23;;;;;;;6.68;3.75;;;;;;;18.41;100.00;97160.09;5038643;28;20397;-72
2023/07/30 08:25:50;;;;;;;4.87;3.10;;;;;;;18.41;100.00;97160.09;5056571;28;20469;-72
2023/07/30 08:28:17;;;;;;;5.50;3.00;;;;;;;18.57;100.00;97154.38;5056309;28;20435;-72
2023/07/30 08:30:43;;;;;;;4.50;2.72;;;;;;;18.75;100.00;97162.16;5056781;28;20832;-72
2023/07/30 08:33:09;;;;;;;3.30;2.63;;;;;;;18.84;100.00;97168.38;5056543;28;20401;-72
2023/07/30 08:35:36;;;;;;;2.63;2.05;;;;;;;18.87;100.00;97165.06;5056652;28;20409;-72
2023/07/30 08:38:02;;;;;;;4.13;2.58;;;;;;;18.95;100.00;97161.63;5056392;28;20405;-72
2023/07/30 08:40:28;;;;;;;5.03;2.78;;;;;;;18.96;100.00;97159.72;5056444;28;20771;-72
2023/07/30 08:42:55;;;;;;;3.85;2.58;;;;;;;19.07;100.00;97155.69;5056351;28;20397;-72
2023/07/30 08:45:23;;;;;;;3.97;2.55;;;;;;;19.04;100.00;97147.44;5056421;28;20456;-72
2023/07/30 08:47:49;;;;;;;3.03;2.10;;;;;;;19.15;100.00;97152.22;5056223;28;20416;-72
2023/07/30 08:50:15;;;;;;;2.83;2.30;;;;;;;19.17;100.00;97159.97;5056284;28;20830;-72
2023/07/30 08:52:42;;;;;;;3.22;2.45;;;;;;;19.23;100.00;97156.84;5056316;28;20405;-73
2023/07/30 08:55:10;;;;;;;4.22;2.53;;;;;;;19.12;100.00;97158.22;5056375;28;20496;-73
2023/07/30 08:57:37;;;;;;;3.65;2.42;;;;;;;19.24;100.00;97168.38;5056367;28;20433;-73
2023/07/30 09:00:05;;;;;;;4.90;2.90;;;;;;;19.01;100.00;97166.88;5056261;28;20898;-73
2023/07/30 09:02:37;;;;;;;5.88;2.60;;;;;;;19.19;100.00;97166.59;5056148;28;20465;-73
2023/07/30 09:05:05;;;;;;;4.18;2.25;;;;;;;19.34;100.00;97176.91;5056251;28;20409;-74
2023/07/30 09:07:32;;;;;;;2.80;2.33;;;;;;;19.38;100.00;97179.75;5053339;28;20907;-74
2023/07/30 09:09:58;;;;;;;3.45;2.55;;;;;;;19.36;100.00;97173.13;5053208;28;20405;-74
2023/07/30 09:12:28;;;;;;;2.38;2.17;;;;;;;19.45;100.00;97179.28;5052729;28;20907;-74
2023/07/30 09:14:54;;;;;;;2.83;2.40;;;;;;;19.52;100.00;97172.41;5053383;28;20413;-74
2023/07/30 09:17:21;;;;;;;3.88;2.45;;;;;;;19.68;100.00;97178.09;5053036;28;20447;-74
2023/07/30 09:19:50;;;;;;;4.50;2.77;;;;;;;19.80;100.00;97178.25;5052885;28;20412;-74
2023/07/30 09:22:23;;;;;;;3.03;2.30;;;;;;;19.69;100.00;97185.06;5052669;28;20406;-74
2023/07/30 09:24:50;;;;;;;2.72;2.28;;;;;;;19.74;100.00;97189.47;5052866;28;20402;-74
2023/07/30 09:27:26;;;;;;;3.47;2.45;;;;;;;19.61;100.00;97186.63;5052429;28;20428;-74
2023/07/30 09:29:54;;;;;;;2.97;2.40;;;;;;;19.63;100.00;97184.41;5052878;28;20401;-73
2023/07/30 09:32:20;;;;;;;2.88;2.13;;;;;;;19.66;100.00;97191.03;5052567;28;20420;-73
2023/07/30 09:34:48;;;;;;;4.57;2.78;;;;;;;19.42;100.00;97196.00;5052689;28;20467;-73
2023/07/30 09:37:15;;;;;;;2.60;2.30;;;;;;;19.45;100.00;97196.19;5052473;28;20480;-73
2023/07/30 09:39:41;;;;;;;3.40;2.63;;;;;;;19.57;100.00;97200.97;5052532;28;20404;-73
2023/07/30 09:42:08;;;;;;;2.83;2.25;;;;;;;19.56;100.00;97205.56;5052307;28;20404;-73
2023/07/30 09:44:35;;;;;;;3.60;2.17;;;;;;;19.53;100.00;97202.72;5052119;28;20455;-73
2023/07/30 09:47:04;;;;;;;6.47;2.70;;;;;;;19.42;100.00;97204.88;5050730;28;20412;-73
2023/07/30 09:49:31;;;;;;;4.63;2.80;;;;;;;19.40;100.00;97200.91;5052501;28;20513;-73
2023/07/30 09:51:59;;;;;;;5.03;3.00;;;;;;;19.31;100.00;97200.91;5052123;28;20901;-73
2023/07/30 09:54:26;;;;;;;4.18;2.80;;;;;;;19.37;100.00;97201.53;5052303;28;20401;-73
2023/07/30 09:56:52;;;;;;;3.88;2.63;;;;;;;19.62;100.00;97212.34;5052221;28;20485;-73
2023/07/30 09:59:19;;;;;;;3.50;2.47;;;;;;;19.79;100.00;97208.13;5052082;28;20409;-73
2023/07/30 10:01:53;;;;;;;3.00;2.53;;;;;;;19.91;100.00;97211.78;5052661;28;20405;-73
2023/07/30 10:04:20;;;;;;;3.28;2.50;;;;;;;19.89;100.00;97213.97;5052096;28;20389;-74
2023/07/30 10:06:52;;;;;;;3.67;2.60;;;;;;;19.87;100.00;97213.50;5051853;28;20778;-74
2023/07/30 10:09:23;;;;;;;4.63;2.80;;;;;;;19.50;100.00;97220.22;5052107;28;20397;-74
2023/07/30 10:11:51;;;;;;;5.53;2.83;;;;;;;19.61;100.00;97223.44;5052800;28;20448;-74
2023/07/30 10:14:20;;;;;;;3.55;2.70;;;;;;;19.66;100.00;97234.00;5052164;28;20404;-74
2023/07/30 10:16:51;;;;;;;3.60;2.53;;;;;;;19.70;100.00;97230.38;5052190;28;20406;-73
2023/07/30 10:19:22;;;;;;;3.90;2.53;;;;;;;19.61;100.00;97229.59;5051335;28;20432;-74
2023/07/30 10:21:48;;;;;;;3.55;2.83;;;;;;;19.56;100.00;97231.59;5051597;28;20405;-74
2023/07/30 10:24:14;;;;;;;4.53;3.00;;;;;;;19.33;100.00;97228.19;5051580;28;20436;-74
2023/07/30 10:26:42;;;;;;;4.47;2.95;;;;;;;19.27;100.00;97229.44;5051478;28;20417;-74
2023/07/30 10:29:12;;;;;;;3.40;2.83;;;;;;;19.50;100.00;97235.56;5051727;28;20398;-73
2023/07/30 10:31:40;;;;;;;4.95;2.90;;;;;;;19.92;100.00;97228.69;5051353;28;20401;-74
2023/07/30 10:34:08;;;;;;;4.88;2.90;;;;;;;20.10;100.00;97230.28;5051549;28;20841;-74
2023/07/30 10:36:45;;;;;;;5.78;3.25;;;;;;;20.12;100.00;97224.59;5051512;28;20751;-75
2023/07/30 10:39:13;;;;;;;5.18;2.97;;;;;;;19.98;100.00;97224.75;5051355;28;20767;-75
2023/07/30 10:41:42;;;;;;;3.70;2.70;;;;;;;20.21;100.00;97228.06;5051304;28;20401;-74
2023/07/30 10:44:19;;;;;;;4.68;2.90;;;;;;;19.97;100.00;97225.84;5051210;28;20401;-75
2023/07/30 10:46:46;;;;;;;3.22;2.40;;;;;;;20.08;100.00;97232.47;5033095;28;20445;-75
2023/07/30 10:49:12;;;;;;;5.22;3.08;;;;;;;20.13;100.00;97226.16;5051023;28;20433;-74
2023/07/30 10:51:38;;;;;;;3.55;2.45;;;;;;;20.30;100.00;97226.16;5051096;28;20405;-75
2023/07/30 10:54:09;;;;;;;4.28;2.90;;;;;;;20.39;100.00;97225.06;5051212;28;20424;-75
2023/07/30 10:56:44;;;;;;;3.42;2.60;;;;;;;20.71;100.00;97209.50;5050966;28;20381;-75
2023/07/30 10:59:12;;;;;;;3.47;2.60;;;;;;;20.98;100.00;97217.19;5050941;28;20838;-74
2023/07/30 11:01:40;;;;;;;4.63;2.60;;;;;;;21.00;100.00;97225.72;5050742;28;20871;-74
2023/07/30 11:04:08;;;;;;;5.43;2.70;;;;;;;20.84;100.00;97224.66;5050863;28;20402;-74
2023/07/30 11:06:34;;;;;;;3.50;2.60;;;;;;;20.92;100.00;97226.53;5032709;28;20409;-74
2023/07/30 11:09:00;;;;;;;4.25;2.70;;;;;;;20.84;100.00;97228.16;5050869;28;20859;-74
2023/07/30 11:11:26;;;;;;;4.32;2.90;;;;;;;21.09;100.00;97231.88;5050690;28;20401;-74
2023/07/30 11:13:53;;;;;;;3.60;2.70;;;;;;;21.09;100.00;97228.41;5050698;28;20405;-74
2023/07/30 11:16:21;;;;;;;4.70;2.60;;;;;;;21.14;100.00;97225.50;5050461;28;20401;-74
2023/07/30 11:18:47;;;;;;;5.72;2.90;;;;;;;21.20;100.00;97256.59;5050717;28;20436;-75
2023/07/30 11:21:16;;;;;;;4.82;3.25;;;;;;;21.02;100.00;97245.03;5050446;28;20405;-74